Hauptseite
METAR-TAF:

METAR-TAF

Flughäfen :

Dala Airport

Borlänge, Schweden

Breite: 60-26N, Länge: 015-31E, Höhe: 145 m

Beobachtung

Neuester Wetterbericht von vor 41 Minuten, um 18:50 UTC
Wind 10 kt aus Südost
Temperatur 21°C
Luftfeuchtigkeit 49%
Luftdruck 1020 hPa
Sichtweite 10 km oder mehr

METAR: ESSD 231850Z AUTO 13010KT 9999 NCD 21/10 Q1020

Zeit: 21:31 (19:31 UTC)

Prognose

Neuester Wetterbericht von vor 8 Stunden und 1 Minuten, um 11:30 UTC
Gültige Prognose vom 23 um 12 UTC bis 23 um 15 UTC
Wind 10 kt aus Ost
Sichtweite 10 km oder mehr
keine Wolken unter 1500 m und keine Kumulonimbus oder Gewitterwolken

TAF: ESSD 231130Z 2312/2315 10010KT CAVOK

Wetterbeobachtungen und Prognosen von mehr als 4000 Flughäfen (METAR und TAF Bericht).

Die verfügbaren Stationen werden durch gelbe und rote Markierungen auf der Karte dargestellt.

Führen Sie die Maus auf sie, um den Namen der Station zu sehen.

Darauf klicken, um die Beobachtung von Wetterbeobachtungen und Prognosen zu sehen.

Um die Karte zu ändern : klicken Sie auf den grünen Tasten mit einem schwarzen Kreuz Zum Vergrößern, auf den grünen Button mit einem Gedankenstrich zu verkleinern, oder auf die grünen Pfeile für benachbarte Karten.


METAR-TAF: